Time;durP1;ratioP1;P1;durP2;ratioP2;P2;SDS_P1;SDS_P2;PMS_P1;PMS_P2;Temp;Humidity;BMP_temperature;BMP_pressure;BME280_temperature;BME280_humidity;BME280_pressure;Samples;Min_cycle;Max_cycle;Signal;HPM_P1;HPM_P2
2021/09/19 00:00:51;;;;;;;11.57;8.60;;;;;;;22.83;68.93;97787.72;4989764;28;20236;-67
2021/09/19 00:03:18;;;;;;;13.63;9.70;;;;;;;22.78;69.46;97782.34;4992495;28;20205;-67
2021/09/19 00:05:45;;;;;;;13.40;9.27;;;;;;;22.73;70.59;97773.38;4994195;28;20208;-67
2021/09/19 00:08:12;;;;;;;14.33;9.57;;;;;;;22.12;74.03;97767.50;5004686;28;20204;-67
2021/09/19 00:10:41;;;;;;;12.40;9.40;;;;;;;22.74;70.40;97766.84;4999878;28;20233;-67
2021/09/19 00:13:08;;;;;;;11.10;8.67;;;;;;;22.65;71.44;97768.56;5001097;28;20287;-67
2021/09/19 00:15:36;;;;;;;13.30;8.90;;;;;;;22.91;69.54;97770.78;4993319;28;20208;-67
2021/09/19 00:18:03;;;;;;;12.27;8.83;;;;;;;22.87;69.97;97767.03;5003778;28;20227;-67
2021/09/19 00:20:31;;;;;;;12.60;9.57;;;;;;;23.10;68.37;97768.19;4991957;28;20220;-67
2021/09/19 00:22:58;;;;;;;12.73;9.53;;;;;;;23.12;67.86;97772.25;4992655;28;20660;-67
2021/09/19 00:25:26;;;;;;;13.00;9.27;;;;;;;22.65;69.18;97766.63;4998692;28;20203;-67
2021/09/19 00:27:54;;;;;;;11.67;8.67;;;;;;;22.63;70.67;97768.00;4994232;28;20203;-67
2021/09/19 00:30:22;;;;;;;11.23;8.70;;;;;;;22.66;70.82;97764.75;5004151;28;20220;-67
2021/09/19 00:32:49;;;;;;;11.73;8.90;;;;;;;23.01;68.51;97757.06;4996994;28;20213;-67
2021/09/19 00:35:16;;;;;;;12.90;8.50;;;;;;;22.59;69.96;97762.34;4997989;28;20247;-67
2021/09/19 00:37:44;;;;;;;11.57;8.13;;;;;;;22.30;72.53;97752.47;4993591;28;20231;-67
2021/09/19 00:40:12;;;;;;;12.27;9.07;;;;;;;22.39;71.66;97753.50;5000860;28;20239;-67
2021/09/19 00:42:40;;;;;;;11.80;8.40;;;;;;;22.50;70.91;97755.88;4997790;28;20633;-67
2021/09/19 00:45:11;;;;;;;11.70;8.53;;;;;;;23.06;67.80;97748.06;5003611;28;20310;-67
2021/09/19 00:47:39;;;;;;;9.53;7.47;;;;;;;23.07;67.05;97741.53;4999906;28;20199;-67
2021/09/19 00:50:08;;;;;;;11.67;8.23;;;;;;;23.04;66.62;97748.34;5004386;28;20245;-67
2021/09/19 00:52:36;;;;;;;10.33;7.80;;;;;;;22.96;66.81;97750.88;4993252;28;20650;-67
2021/09/19 00:55:04;;;;;;;11.13;8.00;;;;;;;23.02;66.12;97745.13;4988003;28;20235;-67
2021/09/19 00:57:33;;;;;;;13.97;7.07;;;;;;;22.19;69.48;97757.13;5002404;28;20234;-67
2021/09/19 01:00:01;;;;;;;11.43;8.33;;;;;;;22.37;71.44;97750.22;5001174;28;20318;-67
2021/09/19 01:02:29;;;;;;;12.40;7.83;;;;;;;21.78;73.50;97733.97;4995053;28;20210;-66
2021/09/19 01:04:57;;;;;;;12.23;7.83;;;;;;;22.14;72.17;97746.28;4992496;28;20207;-67
2021/09/19 01:07:25;;;;;;;13.37;8.03;;;;;;;22.37;70.59;97736.63;5000592;28;20207;-67
2021/09/19 01:09:53;;;;;;;11.17;7.57;;;;;;;22.56;70.12;97737.63;4991816;28;20227;-68
2021/09/19 01:12:22;;;;;;;10.97;8.17;;;;;;;22.58;68.87;97740.84;4990196;28;20210;-67
2021/09/19 01:14:50;;;;;;;10.37;7.83;;;;;;;22.86;67.71;97738.16;5001719;28;20214;-68
2021/09/19 01:17:19;;;;;;;13.83;9.17;;;;;;;22.45;69.70;97725.97;5001354;28;20227;-68
2021/09/19 01:19:48;;;;;;;9.70;7.30;;;;;;;22.50;69.83;97730.59;5003026;28;20219;-68
2021/09/19 01:22:16;;;;;;;14.40;8.50;;;;;;;22.28;70.21;97732.88;4996691;28;20214;-68
2021/09/19 01:24:45;;;;;;;10.73;7.83;;;;;;;22.25;70.52;97728.00;4997256;28;20204;-65
2021/09/19 01:27:12;;;;;;;9.67;7.07;;;;;;;22.38;70.06;97732.81;4990499;28;20215;-67
2021/09/19 01:29:40;;;;;;;11.93;8.03;;;;;;;22.05;71.74;97711.81;4998096;28;20227;-67
2021/09/19 01:32:07;;;;;;;13.43;8.27;;;;;;;21.53;74.47;97714.25;4998142;28;20212;-67
2021/09/19 01:34:34;;;;;;;11.60;8.20;;;;;;;21.96;72.45;97719.78;5007715;28;20549;-68
2021/09/19 01:37:02;;;;;;;13.67;8.80;;;;;;;22.47;69.58;97717.56;5002093;28;20213;-68
2021/09/19 01:39:29;;;;;;;11.20;8.17;;;;;;;22.40;68.81;97715.13;5005594;28;20238;-68
2021/09/19 01:41:59;;;;;;;12.43;9.53;;;;;;;22.27;70.41;97712.22;4992151;28;20226;-68
2021/09/19 01:44:26;;;;;;;11.03;9.03;;;;;;;22.07;70.22;97704.19;4991884;28;20227;-66
2021/09/19 01:46:53;;;;;;;14.50;9.53;;;;;;;22.27;70.70;97704.06;5000378;28;20210;-65
2021/09/19 01:49:21;;;;;;;12.87;9.60;;;;;;;22.39;70.27;97696.38;4997708;28;20245;-66
2021/09/19 01:51:48;;;;;;;13.53;9.23;;;;;;;22.58;68.66;97695.44;5001927;28;20216;-65
2021/09/19 01:54:16;;;;;;;11.87;9.00;;;;;;;22.47;68.51;97691.19;5002886;28;20226;-69
2021/09/19 01:56:43;;;;;;;13.53;10.10;;;;;;;22.46;68.26;97695.00;4990573;28;20211;-66
2021/09/19 01:59:12;;;;;;;15.10;9.30;;;;;;;22.49;67.68;97696.34;4997567;28;20231;-66
2021/09/19 02:01:39;;;;;;;16.50;8.87;;;;;;;21.76;72.12;97684.56;5001381;28;20204;-66
2021/09/19 02:04:07;;;;;;;13.83;9.20;;;;;;;22.16;70.29;97683.47;5003395;28;20216;-67
2021/09/19 02:06:34;;;;;;;10.67;8.50;;;;;;;22.13;70.52;97686.75;4996695;28;20228;-67
2021/09/19 02:09:01;;;;;;;12.30;8.80;;;;;;;22.34;68.62;97680.09;5000265;28;20204;-67
2021/09/19 02:11:29;;;;;;;12.43;8.90;;;;;;;21.90;71.41;97685.56;4992503;28;20208;-67
2021/09/19 02:13:57;;;;;;;11.53;8.73;;;;;;;21.39;74.97;97673.25;4994086;28;20208;-67
2021/09/19 02:16:26;;;;;;;14.53;9.10;;;;;;;21.94;71.93;97680.38;4997771;28;20207;-67
2021/09/19 02:18:56;;;;;;;13.33;9.63;;;;;;;22.05;71.34;97668.34;4995863;28;20228;-67
2021/09/19 02:21:24;;;;;;;15.00;10.23;;;;;;;22.33;69.86;97670.31;4995188;28;20212;-67
2021/09/19 02:23:51;;;;;;;14.47;9.30;;;;;;;22.18;69.88;97675.84;4992688;28;20636;-67
2021/09/19 02:26:19;;;;;;;12.57;9.40;;;;;;;22.31;68.64;97680.66;4992575;28;20207;-67
2021/09/19 02:28:46;;;;;;;15.50;10.00;;;;;;;21.84;71.91;97672.28;4999010;28;20196;-67
2021/09/19 02:31:13;;;;;;;13.87;9.37;;;;;;;22.06;69.77;97672.69;4992967;28;20766;-67
2021/09/19 02:33:42;;;;;;;12.07;9.07;;;;;;;22.12;69.67;97669.66;4991600;28;20218;-68
2021/09/19 02:36:09;;;;;;;12.77;9.43;;;;;;;21.84;70.79;97669.56;4993370;28;20200;-67
2021/09/19 02:38:36;;;;;;;12.70;9.27;;;;;;;22.04;70.12;97672.16;4991904;28;20240;-67
2021/09/19 02:41:04;;;;;;;15.37;8.83;;;;;;;21.97;70.30;97666.22;4989913;28;20254;-67
2021/09/19 02:43:31;;;;;;;13.47;9.10;;;;;;;22.21;68.38;97667.13;5001229;28;20219;-67
2021/09/19 02:45:58;;;;;;;14.23;10.20;;;;;;;21.52;71.07;97669.13;5004602;28;20204;-67
2021/09/19 02:48:26;;;;;;;13.77;9.33;;;;;;;21.42;72.80;97650.19;5000179;28;20198;-67
2021/09/19 02:50:54;;;;;;;12.63;9.43;;;;;;;21.85;71.63;97657.59;5004085;28;20226;-67
2021/09/19 02:53:22;;;;;;;15.13;10.33;;;;;;;21.71;71.47;97651.16;4993274;28;20208;-67
2021/09/19 02:55:49;;;;;;;12.57;9.73;;;;;;;21.74;71.43;97651.41;4995235;28;20213;-67
2021/09/19 02:58:16;;;;;;;13.17;9.37;;;;;;;21.30;73.84;97646.97;4995925;28;20237;-67
2021/09/19 03:00:44;;;;;;;15.63;10.07;;;;;;;21.35;73.59;97641.53;5004244;28;20305;-67
2021/09/19 03:03:11;;;;;;;14.20;9.50;;;;;;;21.50;73.34;97645.00;4999624;28;20214;-67
2021/09/19 03:05:38;;;;;;;14.60;10.60;;;;;;;21.68;71.11;97647.09;4993331;28;20217;-68
2021/09/19 03:08:07;;;;;;;15.03;10.40;;;;;;;21.66;70.89;97638.41;4992372;28;20763;-67
2021/09/19 03:10:36;;;;;;;13.27;9.60;;;;;;;21.91;70.00;97635.56;4996455;28;20223;-67
2021/09/19 03:13:04;;;;;;;17.13;9.80;;;;;;;21.82;69.83;97634.53;4998473;28;20205;-68
2021/09/19 03:15:31;;;;;;;14.30;9.43;;;;;;;21.96;69.29;97630.09;5000240;28;20225;-67
2021/09/19 03:17:59;;;;;;;13.73;9.83;;;;;;;22.02;68.80;97628.13;5006475;28;20237;-67
2021/09/19 03:20:26;;;;;;;13.87;10.20;;;;;;;21.85;69.50;97627.72;4998743;28;20245;-67
2021/09/19 03:22:54;;;;;;;14.93;10.17;;;;;;;21.62;70.91;97622.91;4996187;28;20227;-67
2021/09/19 03:25:22;;;;;;;18.10;10.87;;;;;;;21.68;70.31;97633.50;5001781;28;20204;-67
2021/09/19 03:27:50;;;;;;;13.00;9.50;;;;;;;21.22;71.79;97628.53;4999315;28;20210;-67
2021/09/19 03:30:18;;;;;;;15.57;10.40;;;;;;;21.20;72.81;97633.44;4997256;28;20591;-67
2021/09/19 03:32:46;;;;;;;16.27;10.10;;;;;;;21.46;71.52;97640.38;5002970;28;20221;-68
2021/09/19 03:35:14;;;;;;;17.27;10.87;;;;;;;21.06;73.37;97635.94;4996818;28;20226;-68
2021/09/19 03:37:42;;;;;;;13.30;10.23;;;;;;;21.63;70.67;97640.88;4996467;28;20202;-68
2021/09/19 03:40:11;;;;;;;16.77;11.20;;;;;;;21.77;69.96;97633.72;5006030;28;20237;-68
2021/09/19 03:42:40;;;;;;;17.40;10.97;;;;;;;21.55;70.07;97631.41;4994383;28;20881;-68
2021/09/19 03:45:08;;;;;;;17.57;10.23;;;;;;;21.12;72.59;97623.97;5002360;28;20220;-68
2021/09/19 03:47:36;;;;;;;15.10;10.37;;;;;;;21.49;71.05;97634.41;4996901;28;21422;-68
2021/09/19 03:50:05;;;;;;;14.50;10.47;;;;;;;21.74;69.83;97628.88;4993744;28;20225;-68
2021/09/19 03:52:32;;;;;;;15.80;10.27;;;;;;;21.15;72.97;97631.56;5001583;28;20213;-68
2021/09/19 03:54:59;;;;;;;14.97;10.20;;;;;;;21.05;73.82;97637.03;5001808;28;20633;-68
2021/09/19 03:57:27;;;;;;;17.67;11.00;;;;;;;20.90;75.36;97630.81;5002733;28;20214;-68
2021/09/19 03:59:55;;;;;;;15.40;10.57;;;;;;;21.64;71.12;97632.41;5002490;28;20232;-68
2021/09/19 04:02:22;;;;;;;14.67;10.50;;;;;;;21.15;72.33;97634.28;4997912;28;20206;-68
2021/09/19 04:04:50;;;;;;;17.33;10.97;;;;;;;21.20;71.75;97644.31;4996391;28;20297;-68
2021/09/19 04:07:17;;;;;;;13.93;10.30;;;;;;;21.38;71.07;97644.50;5007687;28;20211;-68
2021/09/19 04:09:44;;;;;;;15.63;10.63;;;;;;;21.59;69.86;97651.44;4999392;28;20228;-67
2021/09/19 04:12:11;;;;;;;14.90;10.47;;;;;;;21.60;69.20;97661.25;5000470;28;20216;-67
2021/09/19 04:14:39;;;;;;;14.20;10.63;;;;;;;21.67;69.05;97644.63;4994596;28;20222;-67
2021/09/19 04:17:08;;;;;;;16.13;10.93;;;;;;;21.60;69.04;97646.84;4991150;28;20271;-67
2021/09/19 04:19:35;;;;;;;14.93;10.67;;;;;;;21.65;69.27;97644.94;4993709;28;20231;-67
2021/09/19 04:22:02;;;;;;;16.70;10.90;;;;;;;21.46;69.54;97643.94;4992888;28;20207;-67
2021/09/19 04:24:30;;;;;;;16.40;10.97;;;;;;;21.14;71.68;97646.25;4995782;28;20208;-67
2021/09/19 04:26:57;;;;;;;16.03;10.77;;;;;;;21.23;71.48;97644.56;5000258;28;20206;-67
2021/09/19 04:29:24;;;;;;;14.77;10.43;;;;;;;21.09;71.38;97651.69;5000191;28;20216;-68
2021/09/19 04:31:52;;;;;;;14.03;10.43;;;;;;;21.44;70.12;97656.94;4993515;28;20562;-67
2021/09/19 04:34:20;;;;;;;14.83;10.30;;;;;;;21.58;68.68;97652.53;4978298;28;20584;-67
2021/09/19 04:36:48;;;;;;;17.60;11.30;;;;;;;21.51;68.47;97654.78;4976446;28;20209;-67
2021/09/19 04:39:15;;;;;;;15.83;10.90;;;;;;;21.42;70.07;97651.00;4993709;28;20236;-67
2021/09/19 04:41:42;;;;;;;16.07;11.50;;;;;;;21.42;68.84;97661.03;5004928;28;20206;-67
2021/09/19 04:44:09;;;;;;;20.97;12.33;;;;;;;21.27;69.56;97667.34;4995072;28;20302;-67
2021/09/19 04:46:37;;;;;;;16.70;10.70;;;;;;;21.29;70.17;97664.38;4993636;28;20221;-66
2021/09/19 04:49:04;;;;;;;16.50;10.90;;;;;;;21.30;69.75;97668.69;4999965;28;20201;-66
2021/09/19 04:51:33;;;;;;;17.93;10.20;;;;;;;20.93;71.62;97670.97;4992119;28;20212;-67
2021/09/19 04:54:00;;;;;;;16.73;11.27;;;;;;;20.82;72.25;97667.44;5003802;28;20211;-67
2021/09/19 04:56:28;;;;;;;19.00;10.83;;;;;;;20.64;73.66;97665.31;4995051;28;20210;-67
2021/09/19 04:58:55;;;;;;;15.80;10.80;;;;;;;20.84;73.56;97665.28;4990934;28;20231;-67
2021/09/19 05:01:22;;;;;;;16.63;11.60;;;;;;;20.42;75.73;97675.59;4993278;28;20207;-68
2021/09/19 05:03:50;;;;;;;15.87;11.33;;;;;;;20.88;73.15;97671.75;4993913;28;20230;-68
2021/09/19 05:06:17;;;;;;;17.43;12.03;;;;;;;20.88;72.73;97673.69;4993270;28;20212;-68
2021/09/19 05:08:46;;;;;;;17.83;11.70;;;;;;;20.43;75.29;97668.28;4996466;28;20206;-68
2021/09/19 05:11:13;;;;;;;18.80;11.43;;;;;;;20.86;73.31;97664.97;4995914;28;20240;-68
2021/09/19 05:13:40;;;;;;;18.10;11.20;;;;;;;21.12;70.71;97667.41;4990634;28;20679;-68
2021/09/19 05:16:07;;;;;;;17.40;11.97;;;;;;;20.80;71.83;97666.91;4991927;28;20695;-67
2021/09/19 05:18:35;;;;;;;16.07;11.23;;;;;;;21.00;72.05;97666.06;5001953;28;20240;-67
2021/09/19 05:21:02;;;;;;;16.20;10.90;;;;;;;21.08;71.07;97676.38;5003035;28;20229;-67
2021/09/19 05:23:30;;;;;;;15.33;11.70;;;;;;;20.52;74.42;97675.59;4996685;28;20624;-67
2021/09/19 05:25:58;;;;;;;17.37;11.93;;;;;;;20.12;77.33;97669.38;4998782;28;20300;-68
2021/09/19 05:28:26;;;;;;;18.37;11.57;;;;;;;20.65;75.80;97685.91;4990330;28;20207;-67
2021/09/19 05:30:53;;;;;;;16.87;11.57;;;;;;;21.08;72.55;97693.44;4995103;28;20713;-68
2021/09/19 05:33:21;;;;;;;16.77;11.33;;;;;;;21.29;70.88;97688.78;4997524;28;20208;-67
2021/09/19 05:35:48;;;;;;;18.20;11.77;;;;;;;21.43;70.47;97692.56;5007941;28;20216;-65
2021/09/19 05:38:16;;;;;;;16.90;11.73;;;;;;;21.20;70.92;97693.97;5000705;28;20209;-66
2021/09/19 05:40:43;;;;;;;22.10;12.63;;;;;;;20.96;73.71;97687.53;4996668;28;20237;-68
2021/09/19 05:43:12;;;;;;;17.63;12.37;;;;;;;20.75;73.28;97688.59;4996301;28;20207;-67
2021/09/19 05:45:39;;;;;;;17.03;11.70;;;;;;;20.14;77.38;97691.56;5003933;28;20213;-68
2021/09/19 05:48:07;;;;;;;16.57;10.63;;;;;;;20.80;75.97;97691.31;4998842;28;20209;-68
2021/09/19 05:50:34;;;;;;;16.63;11.83;;;;;;;21.31;73.32;97694.75;4998782;28;20223;-67
2021/09/19 05:53:02;;;;;;;17.83;11.67;;;;;;;21.56;72.02;97697.38;4995794;28;20202;-66
2021/09/19 05:55:29;;;;;;;18.00;11.13;;;;;;;21.72;71.34;97691.63;4990695;28;20212;-68
2021/09/19 05:57:56;;;;;;;17.70;10.93;;;;;;;21.83;70.66;97693.19;4995847;28;20214;-68
2021/09/19 06:00:25;;;;;;;14.40;10.60;;;;;;;21.84;70.18;97694.81;5003627;28;20237;-68
2021/09/19 06:02:52;;;;;;;16.97;11.27;;;;;;;22.14;69.53;97689.19;4996870;28;20209;-69
2021/09/19 06:05:19;;;;;;;17.13;11.17;;;;;;;21.86;69.88;97689.09;5000556;28;20214;-73
2021/09/19 06:07:47;;;;;;;21.77;12.07;;;;;;;22.03;70.54;97690.38;4993630;28;20677;-68
2021/09/19 06:10:14;;;;;;;16.00;10.53;;;;;;;21.77;70.52;97688.88;4992010;28;20233;-68
2021/09/19 06:12:41;;;;;;;15.67;11.13;;;;;;;22.40;70.14;97685.19;5003480;28;20258;-71
2021/09/19 06:15:10;;;;;;;15.47;11.10;;;;;;;22.52;68.97;97680.25;5004193;28;20219;-71
2021/09/19 06:17:38;;;;;;;17.63;11.37;;;;;;;22.66;68.69;97677.69;5003127;28;20290;-67
2021/09/19 06:20:07;;;;;;;16.90;11.20;;;;;;;22.74;68.06;97679.78;5007849;28;20238;-70
2021/09/19 06:22:34;;;;;;;16.67;10.93;;;;;;;22.74;68.31;97683.31;4992031;28;20222;-76
2021/09/19 06:25:01;;;;;;;14.03;10.10;;;;;;;22.58;67.83;97676.41;5002742;28;20206;-74
2021/09/19 06:27:29;;;;;;;14.17;10.77;;;;;;;22.83;67.58;97678.06;5006552;28;20211;-74
2021/09/19 06:29:56;;;;;;;15.20;10.53;;;;;;;22.81;67.03;97678.34;5013694;28;20224;-78
2021/09/19 06:32:23;;;;;;;12.23;9.40;;;;;;;23.11;66.87;97678.03;5009183;28;20695;-77
2021/09/19 06:34:52;;;;;;;14.03;9.43;;;;;;;23.12;66.68;97679.69;5005550;28;20216;-82
2021/09/19 06:37:19;;;;;;;12.97;9.30;;;;;;;23.03;65.51;97675.13;4997110;28;20288;-80
2021/09/19 06:39:47;;;;;;;14.90;9.70;;;;;;;23.10;65.48;97681.88;5003458;28;20243;-70
2021/09/19 06:42:14;;;;;;;10.83;8.63;;;;;;;22.87;65.31;97681.84;5001342;28;20286;-70
2021/09/19 06:44:41;;;;;;;10.87;7.80;;;;;;;22.05;70.46;97671.06;4996703;28;20204;-74
2021/09/19 06:47:09;;;;;;;10.10;7.83;;;;;;;22.46;68.68;97678.69;4992544;28;20434;-73
2021/09/19 06:49:36;;;;;;;10.20;7.57;;;;;;;23.24;64.19;97688.28;4996216;28;20735;-72
2021/09/19 06:52:05;;;;;;;9.47;7.60;;;;;;;22.26;67.97;97683.41;4990910;28;20208;-73
2021/09/19 06:54:33;;;;;;;9.27;7.50;;;;;;;23.05;64.05;97692.00;5004481;28;20214;-68
2021/09/19 06:57:00;;;;;;;8.90;7.20;;;;;;;22.36;66.90;97686.88;5004483;28;20200;-73
2021/09/19 06:59:27;;;;;;;10.37;7.13;;;;;;;23.11;65.43;97697.09;5001857;28;20225;-72
2021/09/19 07:01:54;;;;;;;9.20;6.77;;;;;;;23.38;63.11;97699.28;4989390;28;20208;-70
2021/09/19 07:04:22;;;;;;;8.93;6.30;;;;;;;23.19;63.60;97695.69;5002483;28;20211;-74
2021/09/19 07:06:49;;;;;;;6.97;6.00;;;;;;;23.81;60.58;97690.06;4990110;28;20207;-70
2021/09/19 07:09:18;;;;;;;7.60;5.90;;;;;;;23.93;61.10;97687.72;4989476;28;20626;-71
2021/09/19 07:11:45;;;;;;;7.83;6.03;;;;;;;23.58;61.97;97696.31;4991471;28;20208;-73
2021/09/19 07:14:13;;;;;;;7.57;5.93;;;;;;;23.87;61.48;97706.03;4990366;28;20206;-69
2021/09/19 07:16:40;;;;;;;7.23;5.60;;;;;;;23.87;60.40;97703.28;4990162;28;20209;-74
2021/09/19 07:19:07;;;;;;;7.27;5.57;;;;;;;22.64;64.28;97690.78;4999732;28;20229;-73
2021/09/19 07:21:35;;;;;;;6.43;5.17;;;;;;;24.00;59.44;97707.25;4997137;28;20234;-72
2021/09/19 07:24:02;;;;;;;6.27;4.93;;;;;;;23.39;60.04;97687.28;4994197;28;20206;-73
2021/09/19 07:26:31;;;;;;;6.57;5.60;;;;;;;23.58;59.93;97699.88;5003472;28;20243;-69
2021/09/19 07:28:59;;;;;;;6.93;4.97;;;;;;;24.32;58.30;97710.88;4991892;28;20210;-70
2021/09/19 07:31:26;;;;;;;7.77;5.40;;;;;;;22.57;64.24;97712.03;5006916;28;20218;-72
2021/09/19 07:33:54;;;;;;;5.63;4.90;;;;;;;23.33;62.90;97716.50;4999889;28;20226;-74
2021/09/19 07:36:25;;;;;;;7.13;4.60;;;;;;;23.82;60.17;97719.72;5012543;28;20670;-75
2021/09/19 07:38:53;;;;;;;6.30;4.87;;;;;;;23.98;58.66;97729.38;4997679;28;20295;-77
2021/09/19 07:41:23;;;;;;;6.87;4.63;;;;;;;25.20;54.76;97732.63;4990435;28;20238;-79
2021/09/19 07:43:52;;;;;;;6.97;5.00;;;;;;;24.90;54.69;97731.25;4988730;28;20196;-76
2021/09/19 07:46:20;;;;;;;5.57;4.20;;;;;;;24.49;56.42;97727.53;4993249;28;20218;-75
2021/09/19 07:48:48;;;;;;;7.47;4.50;;;;;;;24.63;56.10;97728.41;4999975;28;20226;-74
2021/09/19 07:51:16;;;;;;;5.40;4.40;;;;;;;23.45;59.73;97718.81;4993393;28;20700;-75
2021/09/19 07:53:46;;;;;;;7.10;4.70;;;;;;;24.19;59.91;97717.06;5009617;28;20572;-76
2021/09/19 07:56:13;;;;;;;6.33;3.97;;;;;;;23.89;58.49;97722.13;4994436;28;20208;-75
2021/09/19 07:58:40;;;;;;;5.20;4.07;;;;;;;25.18;54.94;97732.13;4994029;28;20208;-75
2021/09/19 08:01:09;;;;;;;4.57;4.10;;;;;;;25.01;54.85;97745.53;4996603;28;20235;-75
2021/09/19 08:03:37;;;;;;;4.97;3.90;;;;;;;25.04;54.32;97750.41;5001184;28;20205;-75
2021/09/19 08:06:04;;;;;;;5.57;4.03;;;;;;;25.99;51.00;97754.91;4994420;28;20255;-76
2021/09/19 08:08:31;;;;;;;5.70;4.07;;;;;;;25.19;52.53;97778.25;5012118;28;20204;-73
2021/09/19 08:10:59;;;;;;;4.93;4.20;;;;;;;26.05;51.60;97761.88;5006932;28;20223;-75
2021/09/19 08:13:27;;;;;;;5.37;3.93;;;;;;;25.89;50.36;97765.22;5012901;28;20197;-76
2021/09/19 08:15:54;;;;;;;5.87;3.90;;;;;;;25.42;53.11;97757.38;4992942;28;20218;-76
2021/09/19 08:18:23;;;;;;;5.83;4.47;;;;;;;25.01;53.71;97748.25;5001451;28;20215;-78
2021/09/19 08:20:50;;;;;;;5.00;3.73;;;;;;;25.53;52.70;97758.84;4993137;28;20775;-78
2021/09/19 08:23:18;;;;;;;5.07;3.83;;;;;;;26.32;50.22;97752.81;5001393;28;20294;-77
2021/09/19 08:25:45;;;;;;;4.87;3.60;;;;;;;26.66;48.97;97753.16;5015280;28;20217;-78
2021/09/19 08:28:12;;;;;;;5.60;4.13;;;;;;;27.02;47.97;97759.38;5009373;28;20209;-77
2021/09/19 08:30:40;;;;;;;5.73;3.97;;;;;;;26.89;47.89;97755.59;5002919;28;20245;-77
2021/09/19 08:33:09;;;;;;;5.47;4.00;;;;;;;27.04;48.76;97749.72;4994394;28;20207;-77
2021/09/19 08:35:38;;;;;;;4.93;3.57;;;;;;;27.10;48.28;97753.97;5000793;28;20215;-77
2021/09/19 08:38:06;;;;;;;6.53;4.13;;;;;;;26.17;49.11;97755.88;5006479;28;20209;-77
2021/09/19 08:40:34;;;;;;;4.47;3.77;;;;;;;26.61;50.28;97753.28;4997761;28;20369;-77
2021/09/19 08:43:02;;;;;;;4.43;3.43;;;;;;;27.61;47.00;97757.00;5001594;28;20195;-75
2021/09/19 08:45:29;;;;;;;3.93;3.53;;;;;;;26.81;48.68;97758.28;5005992;28;20243;-75
2021/09/19 08:47:57;;;;;;;4.60;3.37;;;;;;;26.90;48.00;97761.88;4993802;28;20200;-75
2021/09/19 08:50:24;;;;;;;4.20;3.70;;;;;;;25.63;51.27;97753.16;5008576;28;20230;-76
2021/09/19 08:52:53;;;;;;;5.17;4.13;;;;;;;25.07;53.48;97755.25;5009138;28;20199;-76
2021/09/19 08:55:20;;;;;;;4.80;4.10;;;;;;;26.95;49.32;97757.06;5013051;28;20214;-76
2021/09/19 08:57:49;;;;;;;4.20;3.60;;;;;;;27.39;47.71;97764.47;5010295;28;20582;-76
2021/09/19 09:00:17;;;;;;;6.13;4.17;;;;;;;25.83;50.92;97759.03;4996180;28;20271;-76
2021/09/19 09:02:53;;;;;;;5.17;4.10;;;;;;;27.30;47.49;97758.94;4998441;28;20218;-76
2021/09/19 09:05:25;;;;;;;6.53;3.53;;;;;;;27.70;45.54;97768.81;5005628;28;20276;-76
2021/09/19 09:07:55;;;;;;;4.90;4.30;;;;;;;26.77;48.64;97760.81;4995640;28;20204;-76
2021/09/19 09:10:37;;;;;;;4.87;3.90;;;;;;;26.71;49.24;97761.25;5001115;28;20231;-76
2021/09/19 09:13:06;;;;;;;3.97;3.57;;;;;;;28.04;46.00;97763.50;5000129;28;20192;-76
2021/09/19 09:15:35;;;;;;;5.00;3.87;;;;;;;28.54;44.19;97778.44;4999681;28;20740;-76
2021/09/19 09:18:05;;;;;;;5.67;3.60;;;;;;;28.09;44.68;97768.84;4993253;28;20207;-76
2021/09/19 09:20:49;;;;;;;4.63;3.83;;;;;;;27.16;45.98;97771.09;5010460;28;20235;-76
2021/09/19 09:23:32;;;;;;;4.30;3.63;;;;;;;25.11;52.27;97761.75;4996275;28;20670;-77
2021/09/19 09:26:20;;;;;;;4.13;3.57;;;;;;;25.29;53.63;97747.25;4997880;28;20561;-77
2021/09/19 09:28:52;;;;;;;4.87;3.47;;;;;;;26.13;50.81;97754.88;4992920;28;20207;-76
2021/09/19 09:31:25;;;;;;;4.50;3.47;;;;;;;26.94;48.18;97760.13;5000351;28;20226;-76
2021/09/19 09:33:58;;;;;;;5.67;3.60;;;;;;;27.59;46.93;97761.19;5009631;28;20207;-77
2021/09/19 09:36:37;;;;;;;6.20;3.73;;;;;;;27.46;47.46;97759.38;5004207;28;20553;-75
2021/09/19 09:39:25;;;;;;;3.93;3.27;;;;;;;27.48;46.11;97771.63;4995153;28;20210;-77
2021/09/19 09:41:54;;;;;;;3.73;3.30;;;;;;;28.27;45.09;97769.69;4992846;28;20219;-74
2021/09/19 09:44:32;;;;;;;4.40;3.43;;;;;;;28.77;43.16;97784.59;4996870;28;20619;-74
2021/09/19 09:47:01;;;;;;;5.07;4.10;;;;;;;28.21;45.24;97780.00;5001149;28;20196;-76
2021/09/19 09:49:44;;;;;;;6.33;3.57;;;;;;;28.39;43.47;97786.34;5003982;28;20227;-76
2021/09/19 09:52:13;;;;;;;3.60;3.27;;;;;;;29.20;42.70;97775.25;5002758;28;20218;-77
2021/09/19 09:54:47;;;;;;;4.53;3.50;;;;;;;29.07;43.26;97781.72;5002747;28;20668;-77
2021/09/19 09:57:23;;;;;;;5.67;3.80;;;;;;;26.90;46.39;97781.84;5011196;28;20618;-77
2021/09/19 09:59:52;;;;;;;5.00;4.00;;;;;;;27.85;45.59;97768.44;4995864;28;20220;-77
2021/09/19 10:02:20;;;;;;;3.97;3.50;;;;;;;27.30;46.99;97771.81;5004496;28;20211;-75
2021/09/19 10:04:48;;;;;;;6.00;4.17;;;;;;;28.54;44.52;97769.41;5004219;28;20287;-74
2021/09/19 10:07:15;;;;;;;3.80;3.40;;;;;;;28.11;45.56;97765.75;5004764;28;20683;-75
2021/09/19 10:09:43;;;;;;;5.53;4.00;;;;;;;27.49;47.38;97759.53;5006067;28;20582;-77
2021/09/19 10:12:12;;;;;;;7.47;4.10;;;;;;;27.24;46.76;97762.13;4990517;28;20668;-76
2021/09/19 10:14:39;;;;;;;6.37;4.33;;;;;;;26.75;48.01;97754.84;5002644;28;20660;-77
2021/09/19 10:17:07;;;;;;;6.40;3.97;;;;;;;26.07;50.71;97750.63;4992248;28;20204;-77
2021/09/19 10:19:35;;;;;;;7.23;4.90;;;;;;;27.15;47.63;97753.81;4993824;28;20318;-77
2021/09/19 10:22:02;;;;;;;7.83;3.77;;;;;;;28.45;44.20;97757.63;5009216;28;20603;-74
2021/09/19 10:24:37;;;;;;;6.23;3.50;;;;;;;28.39;43.37;97761.66;5002897;28;20207;-74
2021/09/19 10:27:22;;;;;;;4.77;3.43;;;;;;;28.06;45.19;97753.00;5003101;28;20651;-75
2021/09/19 10:29:56;;;;;;;5.43;3.87;;;;;;;28.35;44.57;97749.66;5004011;28;20319;-77
2021/09/19 10:32:37;;;;;;;4.13;3.60;;;;;;;27.63;46.57;97742.97;4992608;28;20684;-76
2021/09/19 10:35:13;;;;;;;4.87;3.53;;;;;;;28.99;44.11;97749.56;5005455;28;20200;-74
2021/09/19 10:37:51;;;;;;;4.07;3.67;;;;;;;26.80;49.47;97730.06;5002014;28;20202;-76
2021/09/19 10:40:32;;;;;;;6.33;4.23;;;;;;;27.95;46.42;97740.72;4999175;28;20716;-74
2021/09/19 10:43:01;;;;;;;6.40;4.20;;;;;;;26.88;47.52;97732.06;4998197;28;20282;-74
2021/09/19 10:45:42;;;;;;;4.00;3.60;;;;;;;28.62;44.98;97736.47;5020765;22;20211;-71
2021/09/19 10:48:16;;;;;;;5.07;3.70;;;;;;;29.16;42.70;97744.03;5007956;28;20212;-72
2021/09/19 10:50:45;;;;;;;3.77;3.33;;;;;;;29.22;43.24;97733.66;5010395;28;20203;-72
2021/09/19 10:53:21;;;;;;;4.50;4.10;;;;;;;27.17;47.37;97735.16;4997863;28;20659;-71
2021/09/19 10:55:51;;;;;;;5.57;4.20;;;;;;;27.80;47.19;97732.09;4997346;28;20219;-71
2021/09/19 10:58:24;;;;;;;5.57;4.33;;;;;;;27.41;46.60;97724.66;4981724;28;20209;-71
2021/09/19 11:01:14;;;;;;;6.90;4.50;;;;;;;28.22;44.38;97739.66;4983395;28;20224;-71
2021/09/19 11:03:43;;;;;;;6.13;5.03;;;;;;;26.94;47.70;97714.38;4989602;28;20580;-71
2021/09/19 11:06:24;;;;;;;6.37;4.57;;;;;;;27.04;46.96;97719.59;4985094;28;20664;-71
2021/09/19 11:08:52;;;;;;;4.53;4.00;;;;;;;27.79;47.10;97712.09;4979841;28;20197;-71
2021/09/19 11:11:25;;;;;;;4.47;3.90;;;;;;;27.88;47.05;97723.88;4984933;28;20215;-72
2021/09/19 11:14:02;;;;;;;6.80;4.57;;;;;;;26.39;49.22;97712.13;4980887;28;20208;-72
2021/09/19 11:16:44;;;;;;;5.23;4.57;;;;;;;28.42;44.30;97711.59;4992248;28;20249;-73
2021/09/19 11:19:14;;;;;;;4.83;4.17;;;;;;;28.47;43.84;97716.94;4989350;28;20680;-72
2021/09/19 11:21:47;;;;;;;5.53;4.47;;;;;;;28.13;45.32;97703.13;4986655;28;20224;-73
2021/09/19 11:24:16;;;;;;;5.13;4.40;;;;;;;28.06;44.84;97705.53;4982259;28;20235;-72
2021/09/19 11:26:46;;;;;;;5.03;4.20;;;;;;;29.15;42.44;97712.19;4992158;28;20223;-73
2021/09/19 11:29:16;;;;;;;4.70;4.07;;;;;;;28.79;43.70;97708.97;4980754;28;20204;-72
2021/09/19 11:31:45;;;;;;;5.10;3.47;;;;;;;28.33;44.06;97708.00;4985542;28;20238;-73
2021/09/19 11:34:15;;;;;;;5.00;3.87;;;;;;;28.43;43.39;97708.50;4991942;28;20212;-72